sensor_id;sensor_type;location;lat;lon;timestamp;pressure;altitude;pressure_sealevel;temperature;humidity
69239;BME280;56349;51.816;-0.026;2023-09-19T00:01:39;100110.73;;;26.72;33.68
69239;BME280;56349;51.816;-0.026;2023-09-19T00:04:04;100108.40;;;26.60;33.84
69239;BME280;56349;51.816;-0.026;2023-09-19T00:06:29;100106.96;;;26.49;33.97
69239;BME280;56349;51.816;-0.026;2023-09-19T00:08:54;100105.11;;;26.60;34.11
69239;BME280;56349;51.816;-0.026;2023-09-19T00:11:20;100102.15;;;26.52;34.22
69239;BME280;56349;51.816;-0.026;2023-09-19T00:13:47;100109.33;;;26.42;34.36
69239;BME280;56349;51.816;-0.026;2023-09-19T00:16:11;100116.19;;;26.10;34.50
69239;BME280;56349;51.816;-0.026;2023-09-19T00:18:37;100104.42;;;26.00;34.62
69239;BME280;56349;51.816;-0.026;2023-09-19T00:21:02;100098.10;;;25.93;34.71
69239;BME280;56349;51.816;-0.026;2023-09-19T00:23:29;100103.50;;;25.87;34.78
69239;BME280;56349;51.816;-0.026;2023-09-19T00:25:58;100099.84;;;26.02;34.87
69239;BME280;56349;51.816;-0.026;2023-09-19T00:28:20;100105.00;;;26.22;34.97
69239;BME280;56349;51.816;-0.026;2023-09-19T00:30:46;100106.16;;;26.15;35.06
69239;BME280;56349;51.816;-0.026;2023-09-19T00:33:12;100101.45;;;25.82;35.14
69239;BME280;56349;51.816;-0.026;2023-09-19T00:35:36;100103.41;;;26.03;35.23
69239;BME280;56349;51.816;-0.026;2023-09-19T00:38:01;100104.03;;;25.47;35.30
69239;BME280;56349;51.816;-0.026;2023-09-19T00:40:28;100102.03;;;25.91;35.37
69239;BME280;56349;51.816;-0.026;2023-09-19T00:42:57;100107.07;;;25.58;35.46
69239;BME280;56349;51.816;-0.026;2023-09-19T00:45:19;100107.72;;;25.50;35.54
69239;BME280;56349;51.816;-0.026;2023-09-19T00:47:48;100111.00;;;25.45;35.60
69239;BME280;56349;51.816;-0.026;2023-09-19T00:50:11;100130.25;;;25.42;35.66
69239;BME280;56349;51.816;-0.026;2023-09-19T00:52:36;100132.68;;;25.65;35.71
69239;BME280;56349;51.816;-0.026;2023-09-19T00:55:00;100136.02;;;25.35;35.77
69239;BME280;56349;51.816;-0.026;2023-09-19T00:57:27;100136.44;;;25.30;35.82
69239;BME280;56349;51.816;-0.026;2023-09-19T00:59:54;100136.00;;;25.23;35.90
69239;BME280;56349;51.816;-0.026;2023-09-19T01:02:18;100138.20;;;25.45;35.98
69239;BME280;56349;51.816;-0.026;2023-09-19T01:04:44;100138.43;;;25.42;36.02
69239;BME280;56349;51.816;-0.026;2023-09-19T01:07:09;100135.32;;;25.39;36.06
69239;BME280;56349;51.816;-0.026;2023-09-19T01:09:35;100136.31;;;25.37;36.09
69239;BME280;56349;51.816;-0.026;2023-09-19T01:12:02;100131.70;;;25.32;36.13
69239;BME280;56349;51.816;-0.026;2023-09-19T01:14:30;100130.85;;;25.01;36.18
69239;BME280;56349;51.816;-0.026;2023-09-19T01:17:01;100136.56;;;25.24;36.23
69239;BME280;56349;51.816;-0.026;2023-09-19T01:19:26;100137.04;;;25.21;36.26
69239;BME280;56349;51.816;-0.026;2023-09-19T01:21:47;100134.24;;;25.18;36.27
69239;BME280;56349;51.816;-0.026;2023-09-19T01:24:26;100140.21;;;25.16;36.31
69239;BME280;56349;51.816;-0.026;2023-09-19T01:31:28;100136.92;;;25.08;36.38
69239;BME280;56349;51.816;-0.026;2023-09-19T01:33:57;100139.32;;;25.06;36.40
69239;BME280;56349;51.816;-0.026;2023-09-19T01:36:16;100134.42;;;25.04;36.44
69239;BME280;56349;51.816;-0.026;2023-09-19T01:38:42;100135.43;;;25.01;36.46
69239;BME280;56349;51.816;-0.026;2023-09-19T01:41:12;100133.18;;;24.98;36.49
69239;BME280;56349;51.816;-0.026;2023-09-19T01:43:35;100133.91;;;24.94;36.52
69239;BME280;56349;51.816;-0.026;2023-09-19T01:46:04;100134.60;;;25.15;36.55
69239;BME280;56349;51.816;-0.026;2023-09-19T01:48:30;100125.50;;;24.90;36.56
69239;BME280;56349;51.816;-0.026;2023-09-19T01:50:55;100124.10;;;24.88;36.59
69239;BME280;56349;51.816;-0.026;2023-09-19T01:53:21;100128.92;;;25.31;36.63
69239;BME280;56349;51.816;-0.026;2023-09-19T01:55:43;100123.84;;;24.84;36.65
69239;BME280;56349;51.816;-0.026;2023-09-19T01:58:08;100132.20;;;24.82;36.67
69239;BME280;56349;51.816;-0.026;2023-09-19T02:00:33;100138.84;;;24.79;36.70
69239;BME280;56349;51.816;-0.026;2023-09-19T02:02:58;100133.55;;;24.78;36.71
69239;BME280;56349;51.816;-0.026;2023-09-19T02:05:22;100138.11;;;25.20;36.73
69239;BME280;56349;51.816;-0.026;2023-09-19T02:07:48;100128.76;;;24.96;36.74
69239;BME280;56349;51.816;-0.026;2023-09-19T02:10:14;100126.50;;;25.15;36.77
69239;BME280;56349;51.816;-0.026;2023-09-19T02:12:40;100131.74;;;24.90;36.81
69239;BME280;56349;51.816;-0.026;2023-09-19T02:15:07;100125.72;;;25.09;36.83
69239;BME280;56349;51.816;-0.026;2023-09-19T02:17:32;100124.74;;;24.85;36.85
69239;BME280;56349;51.816;-0.026;2023-09-19T02:19:58;100122.35;;;24.83;36.84
69239;BME280;56349;51.816;-0.026;2023-09-19T02:22:23;100118.89;;;24.83;36.84
69239;BME280;56349;51.816;-0.026;2023-09-19T02:24:50;100119.16;;;24.81;36.85
69239;BME280;56349;51.816;-0.026;2023-09-19T02:27:16;100115.48;;;24.57;36.88
69239;BME280;56349;51.816;-0.026;2023-09-19T02:29:42;100126.43;;;25.00;36.88
69239;BME280;56349;51.816;-0.026;2023-09-19T02:32:07;100128.15;;;24.77;36.85
69239;BME280;56349;51.816;-0.026;2023-09-19T02:34:33;100128.26;;;24.98;36.85
69239;BME280;56349;51.816;-0.026;2023-09-19T02:36:59;100125.68;;;24.51;36.90
69239;BME280;56349;51.816;-0.026;2023-09-19T02:39:25;100133.74;;;24.49;36.94
69239;BME280;56349;51.816;-0.026;2023-09-19T02:41:50;100133.42;;;24.69;36.94
69239;BME280;56349;51.816;-0.026;2023-09-19T02:44:16;100131.09;;;24.44;36.95
69239;BME280;56349;51.816;-0.026;2023-09-19T02:46:41;100134.75;;;24.86;36.99
69239;BME280;56349;51.816;-0.026;2023-09-19T02:49:07;100131.74;;;24.61;37.01
69239;BME280;56349;51.816;-0.026;2023-09-19T02:51:34;100126.73;;;24.83;37.03
69239;BME280;56349;51.816;-0.026;2023-09-19T02:54:00;100126.08;;;24.38;37.02
69239;BME280;56349;51.816;-0.026;2023-09-19T02:56:25;100121.01;;;24.36;37.02
69239;BME280;56349;51.816;-0.026;2023-09-19T02:58:51;100122.19;;;24.57;37.04
69239;BME280;56349;51.816;-0.026;2023-09-19T03:01:16;100118.34;;;24.79;37.02
69239;BME280;56349;51.816;-0.026;2023-09-19T03:03:41;100114.89;;;24.77;37.02
69239;BME280;56349;51.816;-0.026;2023-09-19T03:06:07;100113.65;;;24.75;37.05
69239;BME280;56349;51.816;-0.026;2023-09-19T03:08:32;100111.59;;;24.72;37.08
69239;BME280;56349;51.816;-0.026;2023-09-19T03:10:57;100110.91;;;24.49;37.10
69239;BME280;56349;51.816;-0.026;2023-09-19T03:13:22;100114.03;;;24.56;36.99
69239;BME280;56349;51.816;-0.026;2023-09-19T03:15:47;100110.29;;;24.76;36.99
69239;BME280;56349;51.816;-0.026;2023-09-19T03:18:12;100104.76;;;24.49;37.04
69239;BME280;56349;51.816;-0.026;2023-09-19T03:20:39;100103.92;;;24.45;37.12
69239;BME280;56349;51.816;-0.026;2023-09-19T03:23:04;100105.02;;;24.43;37.14
69239;BME280;56349;51.816;-0.026;2023-09-19T03:25:29;100102.63;;;24.63;37.15
69239;BME280;56349;51.816;-0.026;2023-09-19T03:27:56;100100.05;;;24.62;37.15
69239;BME280;56349;51.816;-0.026;2023-09-19T03:30:20;100092.22;;;24.64;37.16
69239;BME280;56349;51.816;-0.026;2023-09-19T03:32:46;100099.98;;;24.63;37.24
69239;BME280;56349;51.816;-0.026;2023-09-19T03:35:11;100097.55;;;24.66;37.34
69239;BME280;56349;51.816;-0.026;2023-09-19T03:37:37;100096.23;;;24.73;37.37
69239;BME280;56349;51.816;-0.026;2023-09-19T03:40:04;100094.26;;;24.84;37.39
69239;BME280;56349;51.816;-0.026;2023-09-19T03:42:29;100087.71;;;24.98;37.31
69239;BME280;56349;51.816;-0.026;2023-09-19T03:44:55;100089.03;;;24.72;37.20
69239;BME280;56349;51.816;-0.026;2023-09-19T03:47:21;100087.68;;;24.93;37.00
69239;BME280;56349;51.816;-0.026;2023-09-19T03:49:47;100084.43;;;25.14;36.71
69239;BME280;56349;51.816;-0.026;2023-09-19T03:52:13;100067.30;;;25.33;36.37
69239;BME280;56349;51.816;-0.026;2023-09-19T03:54:39;100063.68;;;25.49;36.08
69239;BME280;56349;51.816;-0.026;2023-09-19T03:57:05;100064.39;;;25.64;35.82
69239;BME280;56349;51.816;-0.026;2023-09-19T03:59:31;100065.40;;;25.25;35.60
69239;BME280;56349;51.816;-0.026;2023-09-19T04:01:57;100068.81;;;25.53;35.43
69239;BME280;56349;51.816;-0.026;2023-09-19T04:04:23;100068.01;;;25.57;35.28
69239;BME280;56349;51.816;-0.026;2023-09-19T04:06:49;100066.78;;;25.86;35.16
69239;BME280;56349;51.816;-0.026;2023-09-19T04:09:15;100063.70;;;25.59;35.08
69239;BME280;56349;51.816;-0.026;2023-09-19T04:11:41;100059.29;;;25.57;35.04
69239;BME280;56349;51.816;-0.026;2023-09-19T04:14:07;100058.04;;;25.80;35.00
69239;BME280;56349;51.816;-0.026;2023-09-19T04:16:33;100054.24;;;25.49;34.98
69239;BME280;56349;51.816;-0.026;2023-09-19T04:18:59;100054.77;;;25.44;34.99
69239;BME280;56349;51.816;-0.026;2023-09-19T04:21:25;100052.12;;;25.39;35.00
69239;BME280;56349;51.816;-0.026;2023-09-19T04:23:51;100046.50;;;25.62;35.00
69239;BME280;56349;51.816;-0.026;2023-09-19T04:26:17;100048.96;;;25.54;35.02
69239;BME280;56349;51.816;-0.026;2023-09-19T04:28:43;100046.33;;;25.19;35.09
69239;BME280;56349;51.816;-0.026;2023-09-19T04:31:09;100045.81;;;25.39;35.17
69239;BME280;56349;51.816;-0.026;2023-09-19T04:33:35;100045.51;;;25.31;35.22
69239;BME280;56349;51.816;-0.026;2023-09-19T04:36:02;100040.71;;;25.24;35.28
69239;BME280;56349;51.816;-0.026;2023-09-19T04:38:26;100034.76;;;25.18;35.33
69239;BME280;56349;51.816;-0.026;2023-09-19T04:40:57;100034.66;;;25.12;35.38
69239;BME280;56349;51.816;-0.026;2023-09-19T04:43:18;100026.31;;;25.03;35.44
69239;BME280;56349;51.816;-0.026;2023-09-19T04:45:44;100030.22;;;24.95;35.53
69239;BME280;56349;51.816;-0.026;2023-09-19T04:48:10;100027.23;;;24.88;35.61
69239;BME280;56349;51.816;-0.026;2023-09-19T04:50:36;100038.63;;;24.83;35.66
69239;BME280;56349;51.816;-0.026;2023-09-19T04:53:03;100045.18;;;25.22;35.72
69239;BME280;56349;51.816;-0.026;2023-09-19T04:55:28;100045.62;;;24.72;35.76
69239;BME280;56349;51.816;-0.026;2023-09-19T04:57:54;100045.46;;;24.89;35.83
69239;BME280;56349;51.816;-0.026;2023-09-19T05:00:21;100045.83;;;25.03;35.92
69239;BME280;56349;51.816;-0.026;2023-09-19T05:02:48;100044.92;;;24.98;35.96
69239;BME280;56349;51.816;-0.026;2023-09-19T05:05:11;100042.09;;;24.49;36.02
69239;BME280;56349;51.816;-0.026;2023-09-19T05:07:36;100045.41;;;24.89;36.08
69239;BME280;56349;51.816;-0.026;2023-09-19T05:10:01;100040.10;;;24.62;36.10
69239;BME280;56349;51.816;-0.026;2023-09-19T05:12:27;100033.07;;;24.79;36.15
69239;BME280;56349;51.816;-0.026;2023-09-19T05:14:51;100021.23;;;24.52;36.22
69239;BME280;56349;51.816;-0.026;2023-09-19T05:17:17;100018.10;;;24.47;36.24
69239;BME280;56349;51.816;-0.026;2023-09-19T05:19:44;100009.54;;;24.67;36.29
69239;BME280;56349;51.816;-0.026;2023-09-19T05:22:09;100012.10;;;24.44;36.29
69239;BME280;56349;51.816;-0.026;2023-09-19T05:24:35;100002.66;;;24.41;36.31
69239;BME280;56349;51.816;-0.026;2023-09-19T05:27:01;100004.61;;;24.59;36.36
69239;BME280;56349;51.816;-0.026;2023-09-19T05:29:27;100011.96;;;24.53;36.44
69239;BME280;56349;51.816;-0.026;2023-09-19T05:31:53;100011.45;;;24.48;36.51
69239;BME280;56349;51.816;-0.026;2023-09-19T05:34:20;100012.99;;;24.44;36.55
69239;BME280;56349;51.816;-0.026;2023-09-19T05:36:46;100007.47;;;24.41;36.58
69239;BME280;56349;51.816;-0.026;2023-09-19T05:39:11;100002.78;;;24.37;36.63
69239;BME280;56349;51.816;-0.026;2023-09-19T05:41:37;100004.06;;;24.33;36.70
69239;BME280;56349;51.816;-0.026;2023-09-19T05:44:04;100008.21;;;24.29;36.74
69239;BME280;56349;51.816;-0.026;2023-09-19T05:46:29;100000.13;;;24.52;36.80
69239;BME280;56349;51.816;-0.026;2023-09-19T05:48:55;99999.79;;;24.24;36.82
69239;BME280;56349;51.816;-0.026;2023-09-19T05:51:20;99998.90;;;24.23;36.83
69239;BME280;56349;51.816;-0.026;2023-09-19T05:53:47;99989.97;;;24.21;36.84
69239;BME280;56349;51.816;-0.026;2023-09-19T05:56:12;99983.78;;;23.97;36.85
69239;BME280;56349;51.816;-0.026;2023-09-19T05:58:37;99979.53;;;24.18;36.88
69239;BME280;56349;51.816;-0.026;2023-09-19T06:01:02;99976.37;;;24.15;36.91
69239;BME280;56349;51.816;-0.026;2023-09-19T06:03:28;99965.19;;;24.13;36.93
69239;BME280;56349;51.816;-0.026;2023-09-19T06:05:53;99963.19;;;24.10;36.97
69239;BME280;56349;51.816;-0.026;2023-09-19T06:08:18;99960.25;;;24.33;37.02
69239;BME280;56349;51.816;-0.026;2023-09-19T06:10:43;99945.40;;;24.30;37.04
69239;BME280;56349;51.816;-0.026;2023-09-19T06:13:08;99943.91;;;24.01;37.09
69239;BME280;56349;51.816;-0.026;2023-09-19T06:15:33;99946.14;;;23.99;37.11
69239;BME280;56349;51.816;-0.026;2023-09-19T06:17:59;99947.11;;;23.98;37.13
69239;BME280;56349;51.816;-0.026;2023-09-19T06:20:25;99938.30;;;23.97;37.14
69239;BME280;56349;51.816;-0.026;2023-09-19T06:22:51;99938.64;;;24.23;37.14
69239;BME280;56349;51.816;-0.026;2023-09-19T06:25:17;99936.14;;;23.95;37.16
69239;BME280;56349;51.816;-0.026;2023-09-19T06:27:42;99934.17;;;23.94;37.17
69239;BME280;56349;51.816;-0.026;2023-09-19T06:30:08;99938.76;;;24.21;37.17
69239;BME280;56349;51.816;-0.026;2023-09-19T06:32:32;99932.23;;;24.19;37.18
69239;BME280;56349;51.816;-0.026;2023-09-19T06:34:58;99930.12;;;23.89;37.21
69239;BME280;56349;51.816;-0.026;2023-09-19T06:37:27;99936.11;;;24.38;37.22
69239;BME280;56349;51.816;-0.026;2023-09-19T06:39:50;99933.44;;;24.35;37.25
69239;BME280;56349;51.816;-0.026;2023-09-19T06:42:16;99933.33;;;23.85;37.28
69239;BME280;56349;51.816;-0.026;2023-09-19T06:44:41;99925.66;;;23.83;37.32
69239;BME280;56349;51.816;-0.026;2023-09-19T06:47:07;99921.67;;;24.09;37.31
69239;BME280;56349;51.816;-0.026;2023-09-19T06:49:32;99931.59;;;23.82;37.32
69239;BME280;56349;51.816;-0.026;2023-09-19T06:51:59;99931.41;;;23.81;37.32
69239;BME280;56349;51.816;-0.026;2023-09-19T06:54:24;99925.36;;;24.06;37.36
69239;BME280;56349;51.816;-0.026;2023-09-19T06:56:50;99920.52;;;24.07;37.33
69239;BME280;56349;51.816;-0.026;2023-09-19T06:59:16;99914.59;;;23.80;37.32
69239;BME280;56349;51.816;-0.026;2023-09-19T07:01:42;99904.20;;;24.07;37.29
69239;BME280;56349;51.816;-0.026;2023-09-19T07:04:08;99901.73;;;24.08;37.30
69239;BME280;56349;51.816;-0.026;2023-09-19T07:06:34;99908.35;;;24.08;37.44
69239;BME280;56349;51.816;-0.026;2023-09-19T07:09:00;99907.57;;;24.10;37.49
69239;BME280;56349;51.816;-0.026;2023-09-19T07:11:27;99893.49;;;23.86;37.53
69239;BME280;56349;51.816;-0.026;2023-09-19T07:13:53;99892.68;;;23.87;37.76
69239;BME280;56349;51.816;-0.026;2023-09-19T07:16:19;99888.32;;;23.91;37.84
69239;BME280;56349;51.816;-0.026;2023-09-19T07:18:45;99891.38;;;23.95;37.95
69239;BME280;56349;51.816;-0.026;2023-09-19T07:21:11;99890.83;;;24.01;38.18
69239;BME280;56349;51.816;-0.026;2023-09-19T07:23:36;99877.88;;;24.13;38.31
69239;BME280;56349;51.816;-0.026;2023-09-19T07:26:02;99881.46;;;24.06;38.37
69239;BME280;56349;51.816;-0.026;2023-09-19T07:28:28;99884.25;;;24.49;38.27
69239;BME280;56349;51.816;-0.026;2023-09-19T07:30:54;99874.88;;;24.76;38.05
69239;BME280;56349;51.816;-0.026;2023-09-19T07:33:20;99875.08;;;24.59;37.76
69239;BME280;56349;51.816;-0.026;2023-09-19T07:35:46;99876.36;;;25.32;37.48
69239;BME280;56349;51.816;-0.026;2023-09-19T07:38:11;99874.48;;;25.19;37.16
69239;BME280;56349;51.816;-0.026;2023-09-19T07:40:37;99875.22;;;25.50;36.81
69239;BME280;56349;51.816;-0.026;2023-09-19T07:43:03;99878.07;;;25.35;36.42
69239;BME280;56349;51.816;-0.026;2023-09-19T07:45:30;99881.06;;;25.91;36.01
69239;BME280;56349;51.816;-0.026;2023-09-19T07:47:56;99868.84;;;26.00;35.63
69239;BME280;56349;51.816;-0.026;2023-09-19T07:50:22;99857.96;;;26.53;35.24
69239;BME280;56349;51.816;-0.026;2023-09-19T07:52:49;99856.22;;;26.61;34.86
69239;BME280;56349;51.816;-0.026;2023-09-19T07:55:14;99860.98;;;26.68;34.47
69239;BME280;56349;51.816;-0.026;2023-09-19T07:57:39;99858.73;;;26.97;34.12
69239;BME280;56349;51.816;-0.026;2023-09-19T08:00:06;99866.14;;;26.99;33.77
69239;BME280;56349;51.816;-0.026;2023-09-19T08:02:34;99863.53;;;27.25;33.43
69239;BME280;56349;51.816;-0.026;2023-09-19T08:04:57;99859.28;;;27.28;33.09
69239;BME280;56349;51.816;-0.026;2023-09-19T08:07:23;99848.88;;;27.26;32.75
69239;BME280;56349;51.816;-0.026;2023-09-19T08:09:49;99852.79;;;27.80;32.40
69239;BME280;56349;51.816;-0.026;2023-09-19T08:12:15;99848.54;;;27.77;32.04
69239;BME280;56349;51.816;-0.026;2023-09-19T08:14:41;99830.75;;;27.98;31.64
69239;BME280;56349;51.816;-0.026;2023-09-19T08:17:07;99851.13;;;28.18;31.34
69239;BME280;56349;51.816;-0.026;2023-09-19T08:19:33;99842.65;;;28.05;30.91
69239;BME280;56349;51.816;-0.026;2023-09-19T08:21:59;99834.27;;;28.51;30.25
69239;BME280;56349;51.816;-0.026;2023-09-19T08:24:24;99838.83;;;28.60;29.75
69239;BME280;56349;51.816;-0.026;2023-09-19T08:26:48;99838.75;;;28.83;29.41
69239;BME280;56349;51.816;-0.026;2023-09-19T08:29:15;99839.29;;;29.16;29.25
69239;BME280;56349;51.816;-0.026;2023-09-19T08:31:41;99834.94;;;29.16;29.15
69239;BME280;56349;51.816;-0.026;2023-09-19T08:34:07;99843.44;;;29.18;29.11
69239;BME280;56349;51.816;-0.026;2023-09-19T08:36:33;99851.08;;;28.95;29.13
69239;BME280;56349;51.816;-0.026;2023-09-19T08:38:59;99840.87;;;29.25;28.99
69239;BME280;56349;51.816;-0.026;2023-09-19T08:41:25;99859.96;;;29.07;28.89
69239;BME280;56349;51.816;-0.026;2023-09-19T08:43:51;99840.94;;;29.15;28.72
69239;BME280;56349;51.816;-0.026;2023-09-19T08:46:18;99843.39;;;29.21;28.56
69239;BME280;56349;51.816;-0.026;2023-09-19T08:48:46;99847.46;;;29.25;28.43
69239;BME280;56349;51.816;-0.026;2023-09-19T08:51:15;99840.55;;;29.06;28.32
69239;BME280;56349;51.816;-0.026;2023-09-19T08:53:41;99844.30;;;29.33;28.21
69239;BME280;56349;51.816;-0.026;2023-09-19T08:56:00;99843.73;;;29.36;28.13
69239;BME280;56349;51.816;-0.026;2023-09-19T08:58:29;99830.47;;;29.41;28.00
69239;BME280;56349;51.816;-0.026;2023-09-19T09:00:50;99823.26;;;29.53;27.87
69239;BME280;56349;51.816;-0.026;2023-09-19T09:03:16;99829.62;;;29.60;27.83
69239;BME280;56349;51.816;-0.026;2023-09-19T09:05:42;99830.29;;;29.43;27.81
69239;BME280;56349;51.816;-0.026;2023-09-19T09:08:07;99825.60;;;29.53;27.71
69239;BME280;56349;51.816;-0.026;2023-09-19T09:10:33;99821.93;;;29.61;27.58
69239;BME280;56349;51.816;-0.026;2023-09-19T09:12:58;99817.22;;;29.68;27.45
69239;BME280;56349;51.816;-0.026;2023-09-19T09:15:23;99809.60;;;29.75;27.33
69239;BME280;56349;51.816;-0.026;2023-09-19T09:17:50;99808.94;;;29.82;27.24
69239;BME280;56349;51.816;-0.026;2023-09-19T09:20:15;99812.68;;;29.90;27.13
69239;BME280;56349;51.816;-0.026;2023-09-19T09:25:07;99793.77;;;30.02;26.99
69239;BME280;56349;51.816;-0.026;2023-09-19T09:27:32;99802.54;;;30.09;26.88
69239;BME280;56349;51.816;-0.026;2023-09-19T09:29:58;99794.76;;;29.87;26.81
69239;BME280;56349;51.816;-0.026;2023-09-19T09:32:25;99811.21;;;30.20;26.79
69239;BME280;56349;51.816;-0.026;2023-09-19T09:34:51;99812.68;;;30.23;26.75
69239;BME280;56349;51.816;-0.026;2023-09-19T09:37:15;99820.05;;;29.78;26.74
69239;BME280;56349;51.816;-0.026;2023-09-19T09:39:49;99814.67;;;29.84;26.73
69239;BME280;56349;51.816;-0.026;2023-09-19T09:42:06;99812.55;;;30.36;26.71
69239;BME280;56349;51.816;-0.026;2023-09-19T09:44:32;99816.24;;;30.38;26.68
69239;BME280;56349;51.816;-0.026;2023-09-19T09:46:57;99806.86;;;30.37;26.66
69239;BME280;56349;51.816;-0.026;2023-09-19T09:49:24;99794.74;;;30.31;26.65
69239;BME280;56349;51.816;-0.026;2023-09-19T09:51:51;99799.65;;;30.14;26.73
69239;BME280;56349;51.816;-0.026;2023-09-19T09:54:16;99793.37;;;29.93;26.84
69239;BME280;56349;51.816;-0.026;2023-09-19T09:59:06;99793.48;;;29.63;27.17
69239;BME280;56349;51.816;-0.026;2023-09-19T10:03:58;99783.47;;;28.96;27.57
69239;BME280;56349;51.816;-0.026;2023-09-19T10:06:23;99775.08;;;29.30;27.75
69239;BME280;56349;51.816;-0.026;2023-09-19T10:11:16;99787.46;;;29.17;27.98
69239;BME280;56349;51.816;-0.026;2023-09-19T10:13:39;99763.86;;;29.18;28.01
69239;BME280;56349;51.816;-0.026;2023-09-19T10:16:07;99774.62;;;29.21;28.05
69239;BME280;56349;51.816;-0.026;2023-09-19T10:18:33;99768.15;;;28.99;28.03
69239;BME280;56349;51.816;-0.026;2023-09-19T10:20:57;99774.62;;;29.06;28.07
69239;BME280;56349;51.816;-0.026;2023-09-19T10:23:22;99773.33;;;29.13;28.06
69239;BME280;56349;51.816;-0.026;2023-09-19T10:25:49;99772.84;;;29.43;27.99
69239;BME280;56349;51.816;-0.026;2023-09-19T10:28:16;99771.70;;;29.42;27.93
69239;BME280;56349;51.816;-0.026;2023-09-19T10:30:42;99774.07;;;29.36;27.80
69239;BME280;56349;51.816;-0.026;2023-09-19T10:33:05;99776.45;;;29.26;27.77
69239;BME280;56349;51.816;-0.026;2023-09-19T10:35:32;99770.85;;;29.16;27.77
69239;BME280;56349;51.816;-0.026;2023-09-19T10:38:00;99779.60;;;29.00;27.86
69239;BME280;56349;51.816;-0.026;2023-09-19T10:40:23;99782.27;;;28.83;27.94
69239;BME280;56349;51.816;-0.026;2023-09-19T10:42:50;99775.25;;;28.82;28.08
69239;BME280;56349;51.816;-0.026;2023-09-19T10:45:15;99775.04;;;28.59;28.22
69239;BME280;56349;51.816;-0.026;2023-09-19T10:47:40;99768.36;;;28.60;28.38
69239;BME280;56349;51.816;-0.026;2023-09-19T10:50:06;99775.58;;;28.39;28.55
69239;BME280;56349;51.816;-0.026;2023-09-19T10:52:32;99765.48;;;28.19;28.69
69239;BME280;56349;51.816;-0.026;2023-09-19T10:54:58;99747.81;;;28.24;28.86
69239;BME280;56349;51.816;-0.026;2023-09-19T10:57:24;99760.24;;;27.75;29.02
69239;BME280;56349;51.816;-0.026;2023-09-19T11:02:17;99771.17;;;27.83;29.40
69239;BME280;56349;51.816;-0.026;2023-09-19T11:04:41;99768.83;;;27.64;29.58
69239;BME280;56349;51.816;-0.026;2023-09-19T11:07:08;99753.68;;;27.45;29.76
69239;BME280;56349;51.816;-0.026;2023-09-19T11:11:58;99783.56;;;27.08;30.12
69239;BME280;56349;51.816;-0.026;2023-09-19T11:19:15;99790.62;;;26.62;30.60
69239;BME280;56349;51.816;-0.026;2023-09-19T11:21:52;99785.43;;;26.73;30.78
69239;BME280;56349;51.816;-0.026;2023-09-19T11:26:40;99776.36;;;26.67;31.08
69239;BME280;56349;51.816;-0.026;2023-09-19T11:33:48;99792.02;;;26.31;31.67
69239;BME280;56349;51.816;-0.026;2023-09-19T11:36:15;99775.31;;;26.25;31.82
69239;BME280;56349;51.816;-0.026;2023-09-19T11:43:31;99781.73;;;26.05;32.42
69239;BME280;56349;51.816;-0.026;2023-09-19T11:46:02;99777.28;;;25.99;32.69
69239;BME280;56349;51.816;-0.026;2023-09-19T11:48:23;99778.85;;;26.15;32.94
69239;BME280;56349;51.816;-0.026;2023-09-19T11:50:48;99771.94;;;26.10;33.13
69239;BME280;56349;51.816;-0.026;2023-09-19T11:53:12;99784.56;;;26.04;33.17
69239;BME280;56349;51.816;-0.026;2023-09-19T11:55:38;99782.91;;;26.02;33.30
69239;BME280;56349;51.816;-0.026;2023-09-19T11:58:03;99778.55;;;26.03;33.38
69239;BME280;56349;51.816;-0.026;2023-09-19T12:00:28;99782.69;;;26.11;33.46
69239;BME280;56349;51.816;-0.026;2023-09-19T12:02:55;99782.78;;;26.01;33.48
69239;BME280;56349;51.816;-0.026;2023-09-19T12:05:28;99770.83;;;26.17;33.50
69239;BME280;56349;51.816;-0.026;2023-09-19T12:07:44;99776.66;;;26.35;33.40
69239;BME280;56349;51.816;-0.026;2023-09-19T12:10:11;99778.15;;;26.58;33.22
69239;BME280;56349;51.816;-0.026;2023-09-19T12:12:36;99778.53;;;26.59;33.08
69239;BME280;56349;51.816;-0.026;2023-09-19T12:15:01;99778.89;;;26.56;32.91
69239;BME280;56349;51.816;-0.026;2023-09-19T12:17:35;99773.03;;;26.80;32.66
69239;BME280;56349;51.816;-0.026;2023-09-19T12:19:53;99778.71;;;27.07;32.43
69239;BME280;56349;51.816;-0.026;2023-09-19T12:22:18;99760.70;;;27.32;32.14
69239;BME280;56349;51.816;-0.026;2023-09-19T12:24:43;99773.16;;;27.34;31.87
69239;BME280;56349;51.816;-0.026;2023-09-19T12:27:09;99768.26;;;27.80;31.60
69239;BME280;56349;51.816;-0.026;2023-09-19T12:29:43;99767.06;;;27.55;31.37
69239;BME280;56349;51.816;-0.026;2023-09-19T12:32:01;99767.85;;;27.77;31.12
69239;BME280;56349;51.816;-0.026;2023-09-19T12:34:28;99769.39;;;28.00;30.86
69239;BME280;56349;51.816;-0.026;2023-09-19T12:39:23;99770.34;;;28.44;30.41
69239;BME280;56349;51.816;-0.026;2023-09-19T12:41:44;99762.98;;;28.38;30.19
69239;BME280;56349;51.816;-0.026;2023-09-19T12:44:11;99751.11;;;28.30;30.00
69239;BME280;56349;51.816;-0.026;2023-09-19T12:46:36;99758.63;;;28.45;29.83
69239;BME280;56349;51.816;-0.026;2023-09-19T12:51:34;99751.18;;;28.74;29.45
69239;BME280;56349;51.816;-0.026;2023-09-19T12:53:57;99751.71;;;28.90;29.28
69239;BME280;56349;51.816;-0.026;2023-09-19T12:56:17;99748.62;;;29.07;29.09
69239;BME280;56349;51.816;-0.026;2023-09-19T12:58:48;99745.40;;;29.23;28.94
69239;BME280;56349;51.816;-0.026;2023-09-19T13:01:14;99748.03;;;29.39;28.79
69239;BME280;56349;51.816;-0.026;2023-09-19T13:03:34;99751.97;;;29.26;28.71
69239;BME280;56349;51.816;-0.026;2023-09-19T13:06:01;99749.52;;;29.40;28.59
69239;BME280;56349;51.816;-0.026;2023-09-19T13:08:27;99757.13;;;29.82;28.50
69239;BME280;56349;51.816;-0.026;2023-09-19T13:11:00;99762.72;;;29.48;28.46
69239;BME280;56349;51.816;-0.026;2023-09-19T13:13:22;99768.64;;;29.61;28.40
69239;BME280;56349;51.816;-0.026;2023-09-19T13:15:51;99761.21;;;29.96;28.31
69239;BME280;56349;51.816;-0.026;2023-09-19T13:18:11;99756.75;;;29.84;28.17